sensor_id;sensor_type;location;lat;lon;timestamp;P1;durP1;ratioP1;P2;durP2;ratioP2
15526;SDS011;7865;50.918;4.510;2022-08-20T00:04:02;15.43;;;11.52;;
15526;SDS011;7865;50.918;4.510;2022-08-20T00:09:07;16.63;;;11.38;;
15526;SDS011;7865;50.918;4.510;2022-08-20T00:14:09;18.27;;;11.20;;
15526;SDS011;7865;50.918;4.510;2022-08-20T00:19:11;12.80;;;9.98;;
15526;SDS011;7865;50.918;4.510;2022-08-20T00:24:13;14.57;;;9.60;;
15526;SDS011;7865;50.918;4.510;2022-08-20T00:29:15;15.48;;;10.30;;
15526;SDS011;7865;50.918;4.510;2022-08-20T00:34:20;15.90;;;9.95;;
15526;SDS011;7865;50.918;4.510;2022-08-20T00:39:23;20.02;;;11.25;;
15526;SDS011;7865;50.918;4.510;2022-08-20T00:44:25;15.80;;;9.15;;
15526;SDS011;7865;50.918;4.510;2022-08-20T00:49:29;20.40;;;7.68;;
15526;SDS011;7865;50.918;4.510;2022-08-20T00:59:45;14.57;;;6.68;;
15526;SDS011;7865;50.918;4.510;2022-08-20T01:04:48;15.02;;;6.78;;
15526;SDS011;7865;50.918;4.510;2022-08-20T01:09:55;18.58;;;7.03;;
15526;SDS011;7865;50.918;4.510;2022-08-20T01:15:00;18.45;;;7.53;;
15526;SDS011;7865;50.918;4.510;2022-08-20T01:20:07;14.00;;;7.28;;
15526;SDS011;7865;50.918;4.510;2022-08-20T01:25:18;12.45;;;5.75;;
15526;SDS011;7865;50.918;4.510;2022-08-20T01:30:26;12.18;;;6.80;;
15526;SDS011;7865;50.918;4.510;2022-08-20T01:35:39;19.10;;;5.50;;
15526;SDS011;7865;50.918;4.510;2022-08-20T01:46:02;18.48;;;5.28;;
15526;SDS011;7865;50.918;4.510;2022-08-20T01:56:10;20.70;;;6.72;;
15526;SDS011;7865;50.918;4.510;2022-08-20T02:01:19;19.00;;;5.90;;
15526;SDS011;7865;50.918;4.510;2022-08-20T02:06:29;15.02;;;6.28;;
15526;SDS011;7865;50.918;4.510;2022-08-20T02:11:33;18.65;;;6.03;;
15526;SDS011;7865;50.918;4.510;2022-08-20T02:16:37;27.52;;;6.00;;
15526;SDS011;7865;50.918;4.510;2022-08-20T02:21:42;21.90;;;6.55;;
15526;SDS011;7865;50.918;4.510;2022-08-20T02:26:46;15.40;;;6.32;;
15526;SDS011;7865;50.918;4.510;2022-08-20T02:31:49;17.33;;;5.65;;
15526;SDS011;7865;50.918;4.510;2022-08-20T02:37:11;22.87;;;6.67;;
15526;SDS011;7865;50.918;4.510;2022-08-20T02:42:18;22.43;;;7.23;;
15526;SDS011;7865;50.918;4.510;2022-08-20T02:47:21;22.23;;;6.43;;
15526;SDS011;7865;50.918;4.510;2022-08-20T02:52:23;26.23;;;6.33;;
15526;SDS011;7865;50.918;4.510;2022-08-20T02:57:25;21.27;;;7.63;;
15526;SDS011;7865;50.918;4.510;2022-08-20T03:02:29;29.23;;;8.90;;
15526;SDS011;7865;50.918;4.510;2022-08-20T03:07:38;27.70;;;10.23;;
15526;SDS011;7865;50.918;4.510;2022-08-20T03:12:44;23.13;;;7.73;;
15526;SDS011;7865;50.918;4.510;2022-08-20T03:17:49;27.83;;;8.37;;
15526;SDS011;7865;50.918;4.510;2022-08-20T03:22:51;25.65;;;7.57;;
15526;SDS011;7865;50.918;4.510;2022-08-20T03:27:53;20.93;;;6.70;;
15526;SDS011;7865;50.918;4.510;2022-08-20T03:32:57;20.67;;;8.00;;
15526;SDS011;7865;50.918;4.510;2022-08-20T03:38:00;22.02;;;8.88;;
15526;SDS011;7865;50.918;4.510;2022-08-20T03:43:06;27.17;;;8.55;;
15526;SDS011;7865;50.918;4.510;2022-08-20T03:48:10;27.38;;;9.40;;
15526;SDS011;7865;50.918;4.510;2022-08-20T03:53:15;22.67;;;7.93;;
15526;SDS011;7865;50.918;4.510;2022-08-20T03:58:17;22.90;;;8.87;;
15526;SDS011;7865;50.918;4.510;2022-08-20T04:03:19;35.67;;;9.27;;
15526;SDS011;7865;50.918;4.510;2022-08-20T04:08:23;28.07;;;8.50;;
15526;SDS011;7865;50.918;4.510;2022-08-20T04:13:29;20.57;;;8.20;;
15526;SDS011;7865;50.918;4.510;2022-08-20T04:18:31;25.23;;;10.52;;
15526;SDS011;7865;50.918;4.510;2022-08-20T04:23:34;24.00;;;9.60;;
15526;SDS011;7865;50.918;4.510;2022-08-20T04:28:36;28.00;;;10.30;;
15526;SDS011;7865;50.918;4.510;2022-08-20T04:33:38;25.33;;;10.70;;
15526;SDS011;7865;50.918;4.510;2022-08-20T04:38:42;27.87;;;10.60;;
15526;SDS011;7865;50.918;4.510;2022-08-20T04:43:52;20.07;;;8.47;;
15526;SDS011;7865;50.918;4.510;2022-08-20T04:48:55;29.90;;;10.00;;
15526;SDS011;7865;50.918;4.510;2022-08-20T04:53:58;27.73;;;10.40;;
15526;SDS011;7865;50.918;4.510;2022-08-20T04:59:00;21.27;;;10.43;;
15526;SDS011;7865;50.918;4.510;2022-08-20T05:04:02;27.87;;;10.27;;
15526;SDS011;7865;50.918;4.510;2022-08-20T05:09:05;32.87;;;11.70;;
15526;SDS011;7865;50.918;4.510;2022-08-20T05:14:07;30.43;;;11.07;;
15526;SDS011;7865;50.918;4.510;2022-08-20T05:19:11;30.43;;;10.07;;
15526;SDS011;7865;50.918;4.510;2022-08-20T05:24:14;31.73;;;11.97;;
15526;SDS011;7865;50.918;4.510;2022-08-20T05:29:17;26.53;;;10.97;;
15526;SDS011;7865;50.918;4.510;2022-08-20T05:34:19;27.37;;;10.83;;
15526;SDS011;7865;50.918;4.510;2022-08-20T05:39:21;23.58;;;10.30;;
15526;SDS011;7865;50.918;4.510;2022-08-20T05:44:23;25.42;;;11.25;;
15526;SDS011;7865;50.918;4.510;2022-08-20T05:49:25;32.70;;;12.25;;
15526;SDS011;7865;50.918;4.510;2022-08-20T05:54:27;23.52;;;10.65;;
15526;SDS011;7865;50.918;4.510;2022-08-20T05:59:29;25.42;;;10.68;;
15526;SDS011;7865;50.918;4.510;2022-08-20T06:04:31;25.77;;;10.32;;
15526;SDS011;7865;50.918;4.510;2022-08-20T06:09:34;24.25;;;10.73;;
15526;SDS011;7865;50.918;4.510;2022-08-20T06:14:39;22.40;;;10.23;;
15526;SDS011;7865;50.918;4.510;2022-08-20T06:19:42;26.10;;;9.52;;
15526;SDS011;7865;50.918;4.510;2022-08-20T06:24:47;26.83;;;10.32;;
15526;SDS011;7865;50.918;4.510;2022-08-20T06:29:49;23.15;;;11.00;;
15526;SDS011;7865;50.918;4.510;2022-08-20T06:34:52;27.65;;;10.05;;
15526;SDS011;7865;50.918;4.510;2022-08-20T06:39:54;22.67;;;10.50;;
15526;SDS011;7865;50.918;4.510;2022-08-20T06:44:56;24.08;;;9.77;;
15526;SDS011;7865;50.918;4.510;2022-08-20T06:50:00;21.42;;;10.20;;
15526;SDS011;7865;50.918;4.510;2022-08-20T06:55:02;29.50;;;11.85;;
15526;SDS011;7865;50.918;4.510;2022-08-20T07:00:09;20.20;;;9.52;;
15526;SDS011;7865;50.918;4.510;2022-08-20T07:05:14;22.88;;;9.82;;
15526;SDS011;7865;50.918;4.510;2022-08-20T07:10:18;23.13;;;11.02;;
15526;SDS011;7865;50.918;4.510;2022-08-20T07:15:22;27.02;;;11.50;;
15526;SDS011;7865;50.918;4.510;2022-08-20T07:20:27;23.95;;;11.00;;
15526;SDS011;7865;50.918;4.510;2022-08-20T07:25:30;31.10;;;11.73;;
15526;SDS011;7865;50.918;4.510;2022-08-20T07:30:34;24.90;;;11.35;;
15526;SDS011;7865;50.918;4.510;2022-08-20T07:35:59;24.50;;;10.73;;
15526;SDS011;7865;50.918;4.510;2022-08-20T07:41:08;25.15;;;11.50;;
15526;SDS011;7865;50.918;4.510;2022-08-20T07:46:15;21.25;;;10.52;;
15526;SDS011;7865;50.918;4.510;2022-08-20T07:51:22;19.73;;;10.80;;
15526;SDS011;7865;50.918;4.510;2022-08-20T07:56:24;22.48;;;9.32;;
15526;SDS011;7865;50.918;4.510;2022-08-20T08:01:29;19.23;;;9.32;;
15526;SDS011;7865;50.918;4.510;2022-08-20T08:06:33;20.92;;;8.65;;
15526;SDS011;7865;50.918;4.510;2022-08-20T08:11:38;13.63;;;7.95;;
15526;SDS011;7865;50.918;4.510;2022-08-20T08:16:47;17.85;;;7.63;;
15526;SDS011;7865;50.918;4.510;2022-08-20T08:21:50;13.52;;;7.07;;
15526;SDS011;7865;50.918;4.510;2022-08-20T08:26:52;15.63;;;6.57;;
15526;SDS011;7865;50.918;4.510;2022-08-20T08:31:54;9.15;;;5.15;;
15526;SDS011;7865;50.918;4.510;2022-08-20T08:36:57;9.23;;;5.38;;
15526;SDS011;7865;50.918;4.510;2022-08-20T08:42:14;8.43;;;4.53;;
15526;SDS011;7865;50.918;4.510;2022-08-20T08:47:30;7.78;;;4.50;;
15526;SDS011;7865;50.918;4.510;2022-08-20T08:52:36;12.05;;;4.88;;
15526;SDS011;7865;50.918;4.510;2022-08-20T08:57:44;8.35;;;4.28;;
15526;SDS011;7865;50.918;4.510;2022-08-20T09:03:07;10.80;;;4.47;;
15526;SDS011;7865;50.918;4.510;2022-08-20T09:08:12;11.73;;;4.18;;
15526;SDS011;7865;50.918;4.510;2022-08-20T09:13:18;9.48;;;3.85;;
15526;SDS011;7865;50.918;4.510;2022-08-20T09:18:20;5.82;;;3.38;;
15526;SDS011;7865;50.918;4.510;2022-08-20T09:23:22;7.43;;;4.03;;
15526;SDS011;7865;50.918;4.510;2022-08-20T09:28:24;7.90;;;3.05;;
15526;SDS011;7865;50.918;4.510;2022-08-20T09:33:33;8.90;;;2.75;;
15526;SDS011;7865;50.918;4.510;2022-08-20T09:38:35;9.63;;;3.60;;
15526;SDS011;7865;50.918;4.510;2022-08-20T09:43:37;11.20;;;2.88;;
15526;SDS011;7865;50.918;4.510;2022-08-20T09:48:42;8.48;;;2.17;;
15526;SDS011;7865;50.918;4.510;2022-08-20T09:53:44;6.50;;;2.35;;
15526;SDS011;7865;50.918;4.510;2022-08-20T09:58:48;9.38;;;3.05;;
15526;SDS011;7865;50.918;4.510;2022-08-20T10:03:53;9.40;;;2.28;;
15526;SDS011;7865;50.918;4.510;2022-08-20T10:08:55;9.63;;;2.45;;
15526;SDS011;7865;50.918;4.510;2022-08-20T10:13:57;9.10;;;2.20;;
15526;SDS011;7865;50.918;4.510;2022-08-20T10:18:59;5.82;;;2.03;;
15526;SDS011;7865;50.918;4.510;2022-08-20T10:24:03;7.28;;;2.40;;
15526;SDS011;7865;50.918;4.510;2022-08-20T10:29:05;13.20;;;2.28;;
15526;SDS011;7865;50.918;4.510;2022-08-20T10:34:07;9.02;;;3.75;;
15526;SDS011;7865;50.918;4.510;2022-08-20T10:39:09;5.90;;;2.22;;
15526;SDS011;7865;50.918;4.510;2022-08-20T10:44:11;6.00;;;2.28;;
15526;SDS011;7865;50.918;4.510;2022-08-20T10:49:14;5.13;;;1.83;;
15526;SDS011;7865;50.918;4.510;2022-08-20T10:54:17;10.07;;;2.53;;
15526;SDS011;7865;50.918;4.510;2022-08-20T10:59:18;6.65;;;2.60;;
15526;SDS011;7865;50.918;4.510;2022-08-20T11:04:21;6.28;;;2.17;;
15526;SDS011;7865;50.918;4.510;2022-08-20T11:09:23;6.38;;;2.80;;
15526;SDS011;7865;50.918;4.510;2022-08-20T11:14:35;6.40;;;2.55;;
15526;SDS011;7865;50.918;4.510;2022-08-20T11:19:40;7.93;;;2.70;;
15526;SDS011;7865;50.918;4.510;2022-08-20T11:24:44;6.95;;;3.08;;
15526;SDS011;7865;50.918;4.510;2022-08-20T11:29:47;10.35;;;2.67;;
15526;SDS011;7865;50.918;4.510;2022-08-20T11:34:51;7.55;;;2.50;;
15526;SDS011;7865;50.918;4.510;2022-08-20T11:39:56;8.55;;;2.30;;
15526;SDS011;7865;50.918;4.510;2022-08-20T11:44:58;7.50;;;2.47;;
15526;SDS011;7865;50.918;4.510;2022-08-20T11:50:02;9.73;;;2.50;;
15526;SDS011;7865;50.918;4.510;2022-08-20T11:55:06;5.70;;;2.28;;
15526;SDS011;7865;50.918;4.510;2022-08-20T12:00:12;7.25;;;2.03;;
15526;SDS011;7865;50.918;4.510;2022-08-20T12:05:17;8.43;;;2.58;;
15526;SDS011;7865;50.918;4.510;2022-08-20T12:10:19;6.78;;;2.13;;
15526;SDS011;7865;50.918;4.510;2022-08-20T12:15:23;6.20;;;1.90;;
15526;SDS011;7865;50.918;4.510;2022-08-20T12:20:27;5.32;;;2.17;;
15526;SDS011;7865;50.918;4.510;2022-08-20T12:25:30;5.43;;;2.33;;
15526;SDS011;7865;50.918;4.510;2022-08-20T12:30:32;6.32;;;2.00;;
15526;SDS011;7865;50.918;4.510;2022-08-20T12:35:34;7.40;;;2.20;;
15526;SDS011;7865;50.918;4.510;2022-08-20T12:40:37;5.72;;;1.80;;
15526;SDS011;7865;50.918;4.510;2022-08-20T12:45:39;5.35;;;2.22;;
15526;SDS011;7865;50.918;4.510;2022-08-20T12:50:43;5.78;;;1.80;;
15526;SDS011;7865;50.918;4.510;2022-08-20T12:55:46;8.35;;;2.45;;
15526;SDS011;7865;50.918;4.510;2022-08-20T13:00:51;5.43;;;1.60;;
15526;SDS011;7865;50.918;4.510;2022-08-20T13:05:53;2.78;;;1.38;;
15526;SDS011;7865;50.918;4.510;2022-08-20T13:10:55;4.60;;;1.75;;
15526;SDS011;7865;50.918;4.510;2022-08-20T13:15:57;3.65;;;1.67;;
15526;SDS011;7865;50.918;4.510;2022-08-20T13:20:59;5.00;;;1.92;;
15526;SDS011;7865;50.918;4.510;2022-08-20T13:26:01;5.90;;;1.58;;
15526;SDS011;7865;50.918;4.510;2022-08-20T13:31:06;5.00;;;1.48;;
15526;SDS011;7865;50.918;4.510;2022-08-20T13:36:08;4.38;;;1.70;;
15526;SDS011;7865;50.918;4.510;2022-08-20T13:41:10;5.90;;;2.17;;
15526;SDS011;7865;50.918;4.510;2022-08-20T13:46:12;4.60;;;1.70;;
15526;SDS011;7865;50.918;4.510;2022-08-20T13:51:14;4.45;;;2.15;;
15526;SDS011;7865;50.918;4.510;2022-08-20T13:56:19;6.47;;;1.80;;
15526;SDS011;7865;50.918;4.510;2022-08-20T14:01:21;5.18;;;1.75;;
15526;SDS011;7865;50.918;4.510;2022-08-20T14:06:24;6.32;;;2.10;;
15526;SDS011;7865;50.918;4.510;2022-08-20T14:11:26;3.55;;;1.60;;
15526;SDS011;7865;50.918;4.510;2022-08-20T14:16:28;6.13;;;1.83;;
15526;SDS011;7865;50.918;4.510;2022-08-20T14:21:36;3.35;;;1.42;;
15526;SDS011;7865;50.918;4.510;2022-08-20T14:26:39;4.03;;;1.65;;
15526;SDS011;7865;50.918;4.510;2022-08-20T14:31:41;4.00;;;1.48;;
15526;SDS011;7865;50.918;4.510;2022-08-20T14:36:43;6.80;;;1.80;;
15526;SDS011;7865;50.918;4.510;2022-08-20T14:41:48;4.32;;;1.67;;
15526;SDS011;7865;50.918;4.510;2022-08-20T14:46:50;4.50;;;1.58;;
15526;SDS011;7865;50.918;4.510;2022-08-20T14:51:52;6.85;;;1.50;;
15526;SDS011;7865;50.918;4.510;2022-08-20T14:56:55;6.57;;;1.92;;
15526;SDS011;7865;50.918;4.510;2022-08-20T15:02:03;4.55;;;1.73;;
15526;SDS011;7865;50.918;4.510;2022-08-20T15:07:12;6.07;;;1.80;;
15526;SDS011;7865;50.918;4.510;2022-08-20T15:12:23;7.80;;;1.88;;
15526;SDS011;7865;50.918;4.510;2022-08-20T15:17:26;10.18;;;1.65;;
15526;SDS011;7865;50.918;4.510;2022-08-20T15:22:30;4.40;;;1.67;;
15526;SDS011;7865;50.918;4.510;2022-08-20T15:27:32;6.50;;;1.40;;
15526;SDS011;7865;50.918;4.510;2022-08-20T15:32:37;4.40;;;2.00;;
15526;SDS011;7865;50.918;4.510;2022-08-20T15:37:41;5.20;;;1.35;;
15526;SDS011;7865;50.918;4.510;2022-08-20T15:42:47;3.05;;;1.77;;
15526;SDS011;7865;50.918;4.510;2022-08-20T15:47:54;3.20;;;1.20;;
15526;SDS011;7865;50.918;4.510;2022-08-20T15:53:04;4.68;;;1.60;;
15526;SDS011;7865;50.918;4.510;2022-08-20T15:58:15;5.85;;;1.45;;
15526;SDS011;7865;50.918;4.510;2022-08-20T16:08:33;6.13;;;1.75;;
15526;SDS011;7865;50.918;4.510;2022-08-20T16:18:50;5.40;;;2.05;;
15526;SDS011;7865;50.918;4.510;2022-08-20T16:23:54;4.82;;;1.90;;
15526;SDS011;7865;50.918;4.510;2022-08-20T16:29:01;4.03;;;1.63;;
15526;SDS011;7865;50.918;4.510;2022-08-20T16:40:26;6.78;;;2.10;;
15526;SDS011;7865;50.918;4.510;2022-08-20T16:45:08;3.38;;;1.45;;
15526;SDS011;7865;50.918;4.510;2022-08-20T16:50:21;5.45;;;1.85;;
15526;SDS011;7865;50.918;4.510;2022-08-20T16:55:27;6.60;;;1.88;;
15526;SDS011;7865;50.918;4.510;2022-08-20T17:00:30;29.05;;;3.85;;
15526;SDS011;7865;50.918;4.510;2022-08-20T17:05:47;5.43;;;2.40;;
15526;SDS011;7865;50.918;4.510;2022-08-20T17:11:33;4.35;;;1.58;;
15526;SDS011;7865;50.918;4.510;2022-08-20T17:16:41;11.32;;;2.17;;
15526;SDS011;7865;50.918;4.510;2022-08-20T17:21:48;4.70;;;1.80;;
15526;SDS011;7865;50.918;4.510;2022-08-20T17:26:59;1.92;;;1.42;;
15526;SDS011;7865;50.918;4.510;2022-08-20T17:32:16;4.07;;;1.60;;
15526;SDS011;7865;50.918;4.510;2022-08-20T17:37:22;3.17;;;1.92;;
15526;SDS011;7865;50.918;4.510;2022-08-20T17:42:27;5.95;;;1.73;;
15526;SDS011;7865;50.918;4.510;2022-08-20T17:47:31;5.10;;;1.80;;
15526;SDS011;7865;50.918;4.510;2022-08-20T17:52:38;5.60;;;1.67;;
15526;SDS011;7865;50.918;4.510;2022-08-20T17:57:51;4.53;;;1.58;;
15526;SDS011;7865;50.918;4.510;2022-08-20T18:03:05;5.00;;;1.70;;
15526;SDS011;7865;50.918;4.510;2022-08-20T18:08:24;3.13;;;1.33;;
15526;SDS011;7865;50.918;4.510;2022-08-20T18:19:13;8.05;;;1.63;;
15526;SDS011;7865;50.918;4.510;2022-08-20T18:24:29;3.85;;;1.45;;
15526;SDS011;7865;50.918;4.510;2022-08-20T18:29:40;3.78;;;1.58;;
15526;SDS011;7865;50.918;4.510;2022-08-20T18:34:47;5.38;;;1.73;;
15526;SDS011;7865;50.918;4.510;2022-08-20T18:39:51;6.45;;;1.80;;
15526;SDS011;7865;50.918;4.510;2022-08-20T18:45:07;4.10;;;1.77;;
15526;SDS011;7865;50.918;4.510;2022-08-20T18:55:29;4.45;;;1.15;;
15526;SDS011;7865;50.918;4.510;2022-08-20T19:00:46;5.13;;;1.60;;
15526;SDS011;7865;50.918;4.510;2022-08-20T19:11:27;6.18;;;2.05;;
15526;SDS011;7865;50.918;4.510;2022-08-20T19:16:46;5.40;;;1.58;;
15526;SDS011;7865;50.918;4.510;2022-08-20T19:21:51;3.97;;;1.70;;
15526;SDS011;7865;50.918;4.510;2022-08-20T19:26:57;5.32;;;1.80;;
15526;SDS011;7865;50.918;4.510;2022-08-20T19:32:04;4.75;;;2.55;;
15526;SDS011;7865;50.918;4.510;2022-08-20T19:37:13;4.15;;;1.98;;
15526;SDS011;7865;50.918;4.510;2022-08-20T19:42:40;7.63;;;2.85;;
15526;SDS011;7865;50.918;4.510;2022-08-20T19:47:45;7.22;;;4.47;;
15526;SDS011;7865;50.918;4.510;2022-08-20T19:58:32;12.93;;;7.50;;
15526;SDS011;7865;50.918;4.510;2022-08-20T20:03:34;11.63;;;7.18;;
15526;SDS011;7865;50.918;4.510;2022-08-20T20:08:43;16.10;;;7.63;;
15526;SDS011;7865;50.918;4.510;2022-08-20T20:13:58;10.68;;;5.35;;
15526;SDS011;7865;50.918;4.510;2022-08-20T20:19:07;6.85;;;4.05;;
15526;SDS011;7865;50.918;4.510;2022-08-20T20:24:28;10.20;;;5.07;;
15526;SDS011;7865;50.918;4.510;2022-08-20T20:29:35;9.32;;;3.85;;
15526;SDS011;7865;50.918;4.510;2022-08-20T20:34:38;8.50;;;4.47;;
15526;SDS011;7865;50.918;4.510;2022-08-20T20:39:58;9.32;;;3.53;;
15526;SDS011;7865;50.918;4.510;2022-08-20T20:45:16;8.82;;;3.80;;
15526;SDS011;7865;50.918;4.510;2022-08-20T20:50:31;9.43;;;3.47;;
15526;SDS011;7865;50.918;4.510;2022-08-20T21:04:41;11.13;;;3.65;;
15526;SDS011;7865;50.918;4.510;2022-08-20T21:09:45;8.27;;;3.90;;
15526;SDS011;7865;50.918;4.510;2022-08-20T21:14:47;7.68;;;3.15;;
15526;SDS011;7865;50.918;4.510;2022-08-20T21:19:50;5.63;;;3.15;;
15526;SDS011;7865;50.918;4.510;2022-08-20T21:24:52;6.18;;;3.20;;
15526;SDS011;7865;50.918;4.510;2022-08-20T21:29:55;4.78;;;3.30;;
15526;SDS011;7865;50.918;4.510;2022-08-20T21:34:57;9.20;;;4.50;;
15526;SDS011;7865;50.918;4.510;2022-08-20T21:39:59;14.35;;;5.05;;
15526;SDS011;7865;50.918;4.510;2022-08-20T21:45:01;8.88;;;4.97;;
15526;SDS011;7865;50.918;4.510;2022-08-20T21:50:04;10.10;;;5.88;;
15526;SDS011;7865;50.918;4.510;2022-08-20T21:55:08;11.60;;;5.35;;
15526;SDS011;7865;50.918;4.510;2022-08-20T22:00:13;8.18;;;4.03;;
15526;SDS011;7865;50.918;4.510;2022-08-20T22:05:41;7.88;;;3.72;;
15526;SDS011;7865;50.918;4.510;2022-08-20T22:10:44;7.70;;;3.92;;
15526;SDS011;7865;50.918;4.510;2022-08-20T22:15:47;8.20;;;3.00;;
15526;SDS011;7865;50.918;4.510;2022-08-20T22:20:49;6.25;;;2.80;;
15526;SDS011;7865;50.918;4.510;2022-08-20T22:25:51;7.07;;;2.95;;
15526;SDS011;7865;50.918;4.510;2022-08-20T22:30:53;8.13;;;3.08;;
15526;SDS011;7865;50.918;4.510;2022-08-20T22:35:55;7.47;;;3.23;;
15526;SDS011;7865;50.918;4.510;2022-08-20T22:40:58;8.52;;;3.50;;
15526;SDS011;7865;50.918;4.510;2022-08-20T22:46:00;6.50;;;2.70;;
15526;SDS011;7865;50.918;4.510;2022-08-20T22:51:02;5.53;;;2.60;;
15526;SDS011;7865;50.918;4.510;2022-08-20T22:56:05;7.97;;;2.90;;
15526;SDS011;7865;50.918;4.510;2022-08-20T23:01:14;9.37;;;2.33;;
15526;SDS011;7865;50.918;4.510;2022-08-20T23:06:17;8.10;;;3.20;;
15526;SDS011;7865;50.918;4.510;2022-08-20T23:11:20;6.73;;;2.73;;
15526;SDS011;7865;50.918;4.510;2022-08-20T23:16:23;7.87;;;2.17;;
15526;SDS011;7865;50.918;4.510;2022-08-20T23:21:25;7.27;;;2.13;;
15526;SDS011;7865;50.918;4.510;2022-08-20T23:26:27;7.60;;;2.10;;
15526;SDS011;7865;50.918;4.510;2022-08-20T23:31:29;5.33;;;2.00;;
15526;SDS011;7865;50.918;4.510;2022-08-20T23:36:31;7.85;;;2.15;;
15526;SDS011;7865;50.918;4.510;2022-08-20T23:41:34;5.28;;;1.85;;
15526;SDS011;7865;50.918;4.510;2022-08-20T23:46:36;8.35;;;2.25;;
15526;SDS011;7865;50.918;4.510;2022-08-20T23:51:39;8.48;;;2.40;;
15526;SDS011;7865;50.918;4.510;2022-08-20T23:56:41;6.03;;;2.35;;
